Time;durP1;ratioP1;P1;durP2;ratioP2;P2;SDS_P1;SDS_P2;PMS_P1;PMS_P2;Temp;Humidity;BMP_temperature;BMP_pressure;BME280_temperature;BME280_humidity;BME280_pressure;Samples;Min_cycle;Max_cycle;Signal;HPM_P1;HPM_P2
2023/04/09 00:02:13;;;;;;;1.47;1.33;;;6.60;99.90;;;;;;5073020;28;20868;-81
2023/04/09 00:04:40;;;;;;;1.77;1.50;;;6.60;99.90;;;;;;5073367;28;20496;-81
2023/04/09 00:07:07;;;;;;;5.03;2.10;;;6.60;99.90;;;;;;5073448;28;20441;-81
2023/04/09 00:09:33;;;;;;;3.57;2.03;;;6.60;99.90;;;;;;5073056;28;20477;-81
2023/04/09 00:12:00;;;;;;;2.40;2.20;;;6.60;99.90;;;;;;5072816;28;20452;-81
2023/04/09 00:14:29;;;;;;;1.27;1.17;;;6.60;99.90;;;;;;5072749;28;20970;-81
2023/04/09 00:16:55;;;;;;;4.93;1.57;;;6.60;99.90;;;;;;5073051;28;20847;-81
2023/04/09 00:19:22;;;;;;;4.10;2.30;;;6.60;99.90;;;;;;5072946;28;20473;-81
2023/04/09 00:21:49;;;;;;;1.80;1.03;;;6.70;99.90;;;;;;5073008;28;20458;-81
2023/04/09 00:24:16;;;;;;;2.87;1.20;;;6.60;99.90;;;;;;5072966;28;20481;-81
2023/04/09 00:26:43;;;;;;;2.20;1.40;;;6.60;99.90;;;;;;5073024;28;20445;-81
2023/04/09 00:29:09;;;;;;;2.00;1.90;;;6.60;99.90;;;;;;5072846;28;20476;-80
2023/04/09 00:31:37;;;;;;;3.03;2.13;;;6.60;99.90;;;;;;5072937;28;20445;-81
2023/04/09 00:34:04;;;;;;;3.73;2.70;;;6.60;99.90;;;;;;5072846;28;20445;-80
2023/04/09 00:36:31;;;;;;;2.83;1.33;;;6.60;99.90;;;;;;5072904;28;20450;-81
2023/04/09 00:38:57;;;;;;;4.07;1.40;;;6.60;99.90;;;;;;5073194;28;20441;-81
2023/04/09 00:41:24;;;;;;;2.10;1.47;;;6.60;99.90;;;;;;5074474;28;20964;-81
2023/04/09 00:43:51;;;;;;;1.60;1.50;;;6.60;99.90;;;;;;5076572;28;20464;-81
2023/04/09 00:46:18;;;;;;;4.60;2.70;;;6.60;99.90;;;;;;5076184;28;20497;-80
2023/04/09 00:48:46;;;;;;;2.37;1.70;;;6.60;99.90;;;;;;5076487;28;20824;-80
2023/04/09 00:51:13;;;;;;;3.10;1.73;;;6.70;99.90;;;;;;5076405;28;20481;-81
2023/04/09 00:53:40;;;;;;;1.53;1.43;;;6.70;99.90;;;;;;5076066;28;20940;-81
2023/04/09 00:56:08;;;;;;;2.30;2.20;;;6.70;99.90;;;;;;5076559;28;20445;-81
2023/04/09 00:58:35;;;;;;;1.20;1.03;;;6.70;99.90;;;;;;5076328;28;20461;-82
2023/04/09 01:01:01;;;;;;;3.97;2.40;;;6.70;99.90;;;;;;5076195;28;20467;-81
2023/04/09 01:03:29;;;;;;;3.70;3.40;;;6.70;99.90;;;;;;5076183;28;20454;-82
2023/04/09 01:06:05;;;;;;;1.43;1.00;;;6.70;99.90;;;;;;5076111;28;20489;-82
2023/04/09 01:08:40;;;;;;;2.27;1.67;;;6.70;99.90;;;;;;5075864;28;20437;-82
2023/04/09 01:11:15;;;;;;;4.00;2.23;;;6.70;99.90;;;;;;5075772;28;20471;-82
2023/04/09 01:13:49;;;;;;;3.60;2.13;;;6.70;99.90;;;;;;5075742;28;20436;-82
2023/04/09 01:16:19;;;;;;;2.00;1.80;;;6.70;99.90;;;;;;5075708;28;20441;-82
2023/04/09 01:18:52;;;;;;;3.43;1.97;;;6.70;99.90;;;;;;5075722;28;20430;-82
2023/04/09 01:21:25;;;;;;;2.30;1.63;;;6.70;99.90;;;;;;5075551;28;20481;-82
2023/04/09 01:23:59;;;;;;;2.57;1.60;;;6.70;99.90;;;;;;5075849;28;20487;-82
2023/04/09 01:26:41;;;;;;;5.30;2.67;;;6.60;99.90;;;;;;5075829;28;20476;-82
2023/04/09 01:29:09;;;;;;;1.60;1.27;;;6.60;99.90;;;;;;5075756;28;20437;-82
2023/04/09 01:31:38;;;;;;;2.60;1.63;;;6.60;99.90;;;;;;5075734;28;20461;-82
2023/04/09 01:34:07;;;;;;;5.30;2.23;;;6.70;99.90;;;;;;5075352;28;20999;-82
2023/04/09 01:36:36;;;;;;;3.00;2.80;;;6.60;99.90;;;;;;5075681;28;20441;-82
2023/04/09 01:39:04;;;;;;;1.83;1.50;;;6.60;99.90;;;;;;5075247;28;20781;-82
2023/04/09 01:41:32;;;;;;;5.33;1.43;;;6.60;99.90;;;;;;5075569;28;20437;-82
2023/04/09 01:44:01;;;;;;;1.53;1.37;;;6.60;99.90;;;;;;5075468;28;20457;-82
2023/04/09 01:46:30;;;;;;;2.00;1.87;;;6.60;99.90;;;;;;5074981;28;21016;-82
2023/04/09 01:48:58;;;;;;;5.73;2.20;;;6.70;99.90;;;;;;5075134;28;20987;-82
2023/04/09 01:51:26;;;;;;;3.77;1.87;;;6.70;99.90;;;;;;5075054;28;20466;-82
2023/04/09 01:53:52;;;;;;;5.57;2.60;;;6.70;99.90;;;;;;5075270;28;20481;-81
2023/04/09 01:56:20;;;;;;;4.77;2.07;;;6.70;99.90;;;;;;5075261;28;20442;-82
2023/04/09 01:58:46;;;;;;;1.83;1.20;;;6.70;99.90;;;;;;5075169;28;20441;-81
2023/04/09 02:01:22;;;;;;;3.67;1.83;;;6.70;99.90;;;;;;5075074;28;20476;-82
2023/04/09 02:03:54;;;;;;;3.27;1.47;;;6.70;99.90;;;;;;5075089;28;20444;-82
2023/04/09 02:06:28;;;;;;;1.50;1.20;;;6.70;99.90;;;;;;5075012;28;20461;-81
2023/04/09 02:08:57;;;;;;;4.30;2.37;;;6.70;99.90;;;;;;5075206;28;20438;-82
2023/04/09 02:11:26;;;;;;;2.30;2.10;;;6.80;99.90;;;;;;5074605;28;20452;-82
2023/04/09 02:13:55;;;;;;;4.43;2.17;;;6.70;99.90;;;;;;5074550;28;20805;-82
2023/04/09 02:16:22;;;;;;;5.30;2.33;;;6.70;99.90;;;;;;5074490;28;20944;-81
2023/04/09 02:18:54;;;;;;;2.43;1.30;;;6.70;99.90;;;;;;5074446;28;20461;-82
2023/04/09 02:21:22;;;;;;;7.60;2.83;;;6.60;99.90;;;;;;5074661;28;20457;-82
2023/04/09 02:23:49;;;;;;;5.33;2.60;;;6.60;99.90;;;;;;5074884;28;20454;-82
2023/04/09 02:26:15;;;;;;;4.23;1.80;;;6.60;99.90;;;;;;5074555;28;20847;-81
2023/04/09 02:28:42;;;;;;;5.33;2.07;;;6.60;99.90;;;;;;5074332;28;20433;-82
2023/04/09 02:31:10;;;;;;;6.73;3.00;;;6.60;99.90;;;;;;5074199;28;20470;-81
2023/04/09 02:33:36;;;;;;;2.43;1.63;;;6.60;99.90;;;;;;5074176;28;20460;-82
2023/04/09 02:36:05;;;;;;;2.10;1.87;;;6.60;99.90;;;;;;5074410;28;20793;-82
2023/04/09 02:38:32;;;;;;;2.80;2.00;;;6.50;99.90;;;;;;5074399;28;20453;-82
2023/04/09 02:40:59;;;;;;;1.80;1.13;;;6.50;99.90;;;;;;5074283;28;20464;-82
2023/04/09 02:43:25;;;;;;;5.23;1.57;;;6.50;99.90;;;;;;5074299;28;20449;-81
2023/04/09 02:45:52;;;;;;;4.10;2.10;;;6.50;99.90;;;;;;5073773;28;21011;-82
2023/04/09 02:48:19;;;;;;;4.53;1.80;;;6.60;99.90;;;;;;5074217;28;20454;-82
2023/04/09 02:50:45;;;;;;;5.63;2.30;;;6.50;99.90;;;;;;5074117;28;20474;-82
2023/04/09 02:53:13;;;;;;;2.97;1.77;;;6.50;99.90;;;;;;5074679;28;20499;-81
2023/04/09 02:55:40;;;;;;;3.50;1.60;;;6.50;99.90;;;;;;5074087;28;20438;-81
2023/04/09 02:58:07;;;;;;;3.27;2.17;;;6.50;99.90;;;;;;5074008;28;20456;-82
2023/04/09 03:00:33;;;;;;;3.03;1.73;;;6.50;99.90;;;;;;5073622;28;21095;-82
2023/04/09 03:03:00;;;;;;;3.27;2.80;;;6.50;99.90;;;;;;5073701;28;20449;-82
2023/04/09 03:05:27;;;;;;;1.67;1.57;;;6.50;99.90;;;;;;5073398;28;20999;-82
2023/04/09 03:07:54;;;;;;;7.90;1.90;;;6.50;99.90;;;;;;5073847;28;20483;-82
2023/04/09 03:10:22;;;;;;;13.47;3.00;;;6.50;99.90;;;;;;5073378;28;20477;-82
2023/04/09 03:12:49;;;;;;;2.63;1.60;;;6.50;99.90;;;;;;5073762;28;20453;-82
2023/04/09 03:15:16;;;;;;;3.87;1.83;;;6.50;99.90;;;;;;5073753;28;20453;-82
2023/04/09 03:17:43;;;;;;;2.27;1.20;;;6.50;99.90;;;;;;5073634;28;20488;-82
2023/04/09 03:20:10;;;;;;;1.93;1.80;;;6.40;99.90;;;;;;5073604;28;20466;-81
2023/04/09 03:22:37;;;;;;;2.50;1.70;;;6.40;99.90;;;;;;5073659;28;20452;-81
2023/04/09 03:25:05;;;;;;;2.70;1.40;;;6.40;99.90;;;;;;5073508;28;20454;-81
2023/04/09 03:27:33;;;;;;;1.93;1.43;;;6.40;99.90;;;;;;5073553;28;20457;-82
2023/04/09 03:30:00;;;;;;;4.40;3.23;;;6.40;99.90;;;;;;5074114;28;20828;-81
2023/04/09 03:32:27;;;;;;;3.07;2.00;;;6.40;99.90;;;;;;5073491;28;20453;-81
2023/04/09 03:34:53;;;;;;;2.53;2.20;;;6.40;99.90;;;;;;5073479;28;20506;-81
2023/04/09 03:37:20;;;;;;;4.40;1.90;;;6.30;99.90;;;;;;5073484;28;20448;-81
2023/04/09 03:39:47;;;;;;;3.17;2.30;;;6.40;99.90;;;;;;5073100;28;20980;-81
2023/04/09 03:42:13;;;;;;;3.10;2.20;;;6.40;99.90;;;;;;5073129;28;20932;-81
2023/04/09 03:44:41;;;;;;;2.63;2.20;;;6.40;99.90;;;;;;5073095;28;20945;-82
2023/04/09 03:47:08;;;;;;;2.40;1.20;;;6.30;99.90;;;;;;5073106;28;20903;-81
2023/04/09 03:49:35;;;;;;;2.87;1.97;;;6.20;99.90;;;;;;5073308;28;20477;-82
2023/04/09 03:52:02;;;;;;;1.37;1.27;;;6.20;99.90;;;;;;5073315;28;21000;-82
2023/04/09 03:54:29;;;;;;;6.40;1.67;;;6.20;99.90;;;;;;5073288;28;20524;-82
2023/04/09 03:56:56;;;;;;;6.10;2.03;;;6.20;99.90;;;;;;5073280;28;20477;-81
2023/04/09 03:59:23;;;;;;;2.60;1.87;;;6.20;99.90;;;;;;5072905;28;20468;-82
2023/04/09 04:01:51;;;;;;;5.33;2.50;;;6.20;99.90;;;;;;5073288;28;20445;-82
2023/04/09 04:04:18;;;;;;;6.87;2.10;;;6.20;99.90;;;;;;5073234;28;20449;-81
2023/04/09 04:06:44;;;;;;;2.70;1.67;;;6.20;99.90;;;;;;5073138;28;20481;-82
2023/04/09 04:09:11;;;;;;;2.40;2.00;;;6.20;99.90;;;;;;5073307;28;20445;-81
2023/04/09 04:11:37;;;;;;;9.50;2.27;;;6.20;99.90;;;;;;5073189;28;20499;-81
2023/04/09 04:14:04;;;;;;;5.40;3.17;;;6.20;99.90;;;;;;5073134;28;20449;-81
2023/04/09 04:16:31;;;;;;;2.17;1.37;;;6.20;99.90;;;;;;5077020;28;20450;-81
2023/04/09 04:18:59;;;;;;;2.03;1.83;;;6.20;99.90;;;;;;5076875;28;20438;-81
2023/04/09 04:21:26;;;;;;;5.70;2.90;;;6.20;99.90;;;;;;5077019;28;20445;-82
2023/04/09 04:23:53;;;;;;;2.27;1.30;;;6.20;99.90;;;;;;5076976;28;20905;-81
2023/04/09 04:26:19;;;;;;;4.87;1.80;;;6.20;99.90;;;;;;5077472;28;20477;-81
2023/04/09 04:28:46;;;;;;;2.70;1.77;;;6.30;99.90;;;;;;5077135;28;20445;-81
2023/04/09 04:31:13;;;;;;;2.50;1.10;;;6.30;99.90;;;;;;5076795;28;20465;-82
2023/04/09 04:33:41;;;;;;;5.53;1.60;;;6.30;99.90;;;;;;5076784;28;20457;-81
2023/04/09 04:36:12;;;;;;;3.57;2.87;;;6.40;99.90;;;;;;5077019;28;20442;-81
2023/04/09 04:38:40;;;;;;;7.70;2.00;;;6.40;99.90;;;;;;5077533;28;20434;-81
2023/04/09 04:41:06;;;;;;;4.13;1.97;;;6.30;99.90;;;;;;5076306;28;20973;-81
2023/04/09 04:43:33;;;;;;;4.80;2.80;;;6.30;99.90;;;;;;5076642;28;20819;-81
2023/04/09 04:46:00;;;;;;;5.83;3.10;;;6.30;99.90;;;;;;5076303;28;20518;-81
2023/04/09 04:48:28;;;;;;;2.60;1.47;;;6.30;99.90;;;;;;5076304;28;20817;-81
2023/04/09 04:50:55;;;;;;;3.23;1.80;;;6.30;99.90;;;;;;5076461;28;20481;-82
2023/04/09 04:53:23;;;;;;;2.00;1.80;;;6.30;99.90;;;;;;5076410;28;20445;-82
2023/04/09 04:55:50;;;;;;;6.23;1.87;;;6.30;99.90;;;;;;5076381;28;20441;-81
2023/04/09 04:58:17;;;;;;;7.03;1.93;;;6.30;99.90;;;;;;5076043;28;20949;-82
2023/04/09 05:00:44;;;;;;;1.87;1.43;;;6.40;99.90;;;;;;5076239;28;20470;-81
2023/04/09 05:03:11;;;;;;;4.57;2.03;;;6.30;99.90;;;;;;5075945;28;20816;-81
2023/04/09 05:05:38;;;;;;;2.20;1.70;;;6.30;99.90;;;;;;5076164;28;20441;-81
2023/04/09 05:08:05;;;;;;;2.77;2.00;;;6.40;99.90;;;;;;5075951;28;20457;-82
2023/04/09 05:10:33;;;;;;;4.67;1.70;;;6.40;99.90;;;;;;5076041;28;20504;-82
2023/04/09 05:13:00;;;;;;;5.30;1.80;;;6.40;99.90;;;;;;5076145;28;20452;-81
2023/04/09 05:15:27;;;;;;;6.43;2.07;;;6.40;99.90;;;;;;5076474;28;20434;-82
2023/04/09 05:17:54;;;;;;;3.13;2.13;;;6.40;99.90;;;;;;5094552;28;20449;-81
2023/04/09 05:20:20;;;;;;;4.93;2.23;;;6.50;99.90;;;;;;5093092;28;20466;-81
2023/04/09 05:22:47;;;;;;;4.70;2.63;;;6.50;99.90;;;;;;5091865;28;20448;-79
2023/04/09 05:25:15;;;;;;;2.70;1.63;;;6.50;99.90;;;;;;5083352;28;20452;-82
2023/04/09 05:27:43;;;;;;;1.93;1.33;;;6.50;99.90;;;;;;5075313;28;20569;-81
2023/04/09 05:30:10;;;;;;;5.57;1.40;;;6.50;99.90;;;;;;5075577;28;20554;-82
2023/04/09 05:32:37;;;;;;;2.20;2.00;;;6.50;99.90;;;;;;5075758;28;20481;-82
2023/04/09 05:35:04;;;;;;;3.40;2.13;;;6.50;99.90;;;;;;5075718;28;20449;-82
2023/04/09 05:37:31;;;;;;;3.63;3.30;;;6.50;99.90;;;;;;5075675;28;21028;-82
2023/04/09 05:39:58;;;;;;;6.63;3.00;;;6.60;99.90;;;;;;5075526;28;20465;-82
2023/04/09 05:42:24;;;;;;;2.30;1.80;;;6.60;99.90;;;;;;5075537;28;20862;-81
2023/04/09 05:44:52;;;;;;;5.30;2.93;;;6.60;99.90;;;;;;5075493;28;20453;-82
2023/04/09 05:47:19;;;;;;;4.40;2.20;;;6.70;99.90;;;;;;5075109;28;20501;-82
2023/04/09 05:49:46;;;;;;;2.80;1.73;;;6.80;99.90;;;;;;5075416;28;20476;-82
2023/04/09 05:52:14;;;;;;;4.70;3.03;;;6.90;99.90;;;;;;5075380;28;20453;-82
2023/04/09 05:54:41;;;;;;;15.20;2.27;;;7.00;99.90;;;;;;5075308;28;20491;-82
2023/04/09 05:57:07;;;;;;;3.13;1.83;;;7.10;99.90;;;;;;5074980;28;20484;-82
2023/04/09 05:59:34;;;;;;;5.53;2.43;;;7.10;99.90;;;;;;5075297;28;20478;-81
2023/04/09 06:02:02;;;;;;;2.27;1.60;;;7.20;99.90;;;;;;5075395;28;20470;-82
2023/04/09 06:04:29;;;;;;;2.47;1.50;;;7.30;99.90;;;;;;5075124;28;20456;-82
2023/04/09 06:06:58;;;;;;;2.30;1.80;;;7.40;99.90;;;;;;5074995;28;20527;-82
2023/04/09 06:09:25;;;;;;;7.27;3.10;;;7.50;99.90;;;;;;5074875;28;20485;-81
2023/04/09 06:11:52;;;;;;;5.30;2.80;;;7.60;99.90;;;;;;5074724;28;20438;-82
2023/04/09 06:14:19;;;;;;;7.00;2.93;;;7.70;99.90;;;;;;5075128;28;20452;-82
2023/04/09 06:16:45;;;;;;;4.17;1.93;;;7.80;99.90;;;;;;5074565;28;20450;-82
2023/04/09 06:19:15;;;;;;;5.13;2.40;;;7.90;99.90;;;;;;5074727;28;20485;-82
2023/04/09 06:21:42;;;;;;;4.47;2.17;;;8.10;99.90;;;;;;5074566;28;20418;-81
2023/04/09 06:24:09;;;;;;;3.97;3.40;;;8.30;99.90;;;;;;5074444;28;20524;-81
2023/04/09 06:26:36;;;;;;;3.07;2.40;;;8.50;99.90;;;;;;5074600;28;20493;-81
2023/04/09 06:29:03;;;;;;;6.87;2.50;;;8.80;99.90;;;;;;5074533;28;20458;-82
2023/04/09 06:31:30;;;;;;;2.37;1.80;;;9.20;99.90;;;;;;5074300;28;20493;-81
2023/04/09 06:33:56;;;;;;;4.37;2.53;;;9.80;99.90;;;;;;5074506;28;20457;-81
2023/04/09 06:36:26;;;;;;;9.10;3.37;;;10.30;99.90;;;;;;5074544;28;20446;-81
2023/04/09 06:38:52;;;;;;;8.03;3.20;;;10.60;99.90;;;;;;5073150;28;20921;-81
2023/04/09 06:41:21;;;;;;;5.53;2.87;;;10.80;99.90;;;;;;5074332;28;20469;-81
2023/04/09 06:43:48;;;;;;;7.77;3.60;;;10.90;99.90;;;;;;5074314;28;20477;-81
2023/04/09 06:46:17;;;;;;;6.97;4.20;;;11.10;99.90;;;;;;5073958;28;20489;-81
2023/04/09 06:48:43;;;;;;;4.93;3.37;;;11.20;99.90;;;;;;5073872;28;20959;-81
2023/04/09 06:51:10;;;;;;;9.63;3.00;;;11.20;99.90;;;;;;5074202;28;20466;-81
2023/04/09 06:53:39;;;;;;;6.00;3.73;;;11.00;99.90;;;;;;5074078;28;20482;-81
2023/04/09 06:56:06;;;;;;;6.80;3.30;;;10.90;99.90;;;;;;5074395;28;20452;-81
2023/04/09 06:58:33;;;;;;;5.50;2.80;;;10.80;99.90;;;;;;5074128;28;20437;-81
2023/04/09 07:01:00;;;;;;;7.87;3.60;;;10.80;99.90;;;;;;5073967;28;20477;-81
2023/04/09 07:03:27;;;;;;;7.50;2.93;;;11.20;99.90;;;;;;5073975;28;20465;-81
2023/04/09 07:05:54;;;;;;;4.87;3.37;;;11.80;99.90;;;;;;5073650;28;20956;-81
2023/04/09 07:08:22;;;;;;;6.70;2.70;;;11.90;99.90;;;;;;5074098;28;20505;-81
2023/04/09 07:10:50;;;;;;;7.20;3.60;;;11.80;99.90;;;;;;5073728;28;20481;-81
2023/04/09 07:13:16;;;;;;;4.43;2.63;;;11.50;99.90;;;;;;5073627;28;20449;-81
2023/04/09 07:15:43;;;;;;;3.27;2.47;;;11.30;99.90;;;;;;5073739;28;20450;-81
2023/04/09 07:18:10;;;;;;;3.37;2.13;;;11.10;99.90;;;;;;5073708;28;20449;-81
2023/04/09 07:20:37;;;;;;;5.73;2.90;;;11.00;99.90;;;;;;5073878;28;20469;-81
2023/04/09 07:23:04;;;;;;;4.40;2.60;;;10.90;99.90;;;;;;5073827;28;20446;-81
2023/04/09 07:25:31;;;;;;;6.40;3.83;;;10.80;99.90;;;;;;5073612;28;20480;-81
2023/04/09 07:27:59;;;;;;;2.77;2.40;;;10.60;99.90;;;;;;5073537;28;20477;-81
2023/04/09 07:30:26;;;;;;;5.13;2.67;;;10.30;99.90;;;;;;5073512;28;20476;-81
2023/04/09 07:32:52;;;;;;;3.47;2.13;;;10.30;99.90;;;;;;5073219;28;20453;-81
2023/04/09 07:35:19;;;;;;;4.60;2.27;;;10.20;99.90;;;;;;5073609;28;20437;-81
2023/04/09 07:37:46;;;;;;;5.87;2.90;;;10.20;99.90;;;;;;5073489;28;20491;-81
2023/04/09 07:40:13;;;;;;;3.40;1.93;;;10.40;99.90;;;;;;5073362;28;20721;-81
2023/04/09 07:42:41;;;;;;;3.83;2.53;;;11.00;99.90;;;;;;5073190;28;20445;-81
2023/04/09 07:45:09;;;;;;;4.53;2.03;;;12.50;99.90;;;;;;5073599;28;20453;-81
2023/04/09 07:47:36;;;;;;;3.17;2.17;;;13.50;99.90;;;;;;5072841;28;20497;-81
2023/04/09 07:50:03;;;;;;;4.70;2.53;;;13.50;99.90;;;;;;5073243;28;20465;-81
2023/04/09 07:52:30;;;;;;;2.07;1.43;;;13.10;99.90;;;;;;5073768;28;20454;-81
2023/04/09 07:54:56;;;;;;;3.90;1.80;;;12.60;99.90;;;;;;5073641;28;20446;-81
2023/04/09 07:57:23;;;;;;;3.50;2.00;;;12.10;99.90;;;;;;5073314;28;20457;-81
2023/04/09 07:59:50;;;;;;;5.20;1.97;;;12.10;99.90;;;;;;5074211;28;20469;-81
2023/04/09 08:02:18;;;;;;;1.53;1.30;;;12.70;99.90;;;;;;5086118;28;20458;-79
2023/04/09 08:04:45;;;;;;;5.57;1.77;;;13.30;99.90;;;;;;5088584;28;20460;-80
2023/04/09 08:07:12;;;;;;;3.03;2.13;;;13.70;99.90;;;;;;5085710;28;20477;-81
2023/04/09 08:09:39;;;;;;;2.93;1.73;;;14.20;99.90;;;;;;5081553;28;20476;-81
2023/04/09 08:12:05;;;;;;;3.63;1.73;;;14.10;99.90;;;;;;5079091;28;20449;-80
2023/04/09 08:14:32;;;;;;;1.67;1.57;;;14.20;99.90;;;;;;5073171;28;20449;-81
2023/04/09 08:17:00;;;;;;;0.70;0.70;;;14.20;99.90;;;;;;5073192;28;20499;-80
2023/04/09 08:19:28;;;;;;;2.40;1.20;;;14.20;99.90;;;;;;5072848;28;20972;-81
2023/04/09 08:21:55;;;;;;;2.30;1.50;;;14.10;98.40;;;;;;5072766;28;20945;-80
2023/04/09 08:24:22;;;;;;;1.63;1.30;;;13.80;98.10;;;;;;5072986;28;20488;-80
2023/04/09 08:26:48;;;;;;;2.10;1.70;;;13.70;99.00;;;;;;5073141;28;20484;-81
2023/04/09 08:29:15;;;;;;;2.03;1.67;;;13.60;99.90;;;;;;5072900;28;20458;-81
2023/04/09 08:31:42;;;;;;;3.80;0.97;;;13.60;99.00;;;;;;5072948;28;20460;-81
2023/04/09 08:34:09;;;;;;;1.30;1.30;;;13.30;98.60;;;;;;5072926;28;20449;-81
2023/04/09 08:36:37;;;;;;;3.13;1.50;;;13.10;98.40;;;;;;5072891;28;20797;-81
2023/04/09 08:39:04;;;;;;;4.40;1.80;;;12.70;98.20;;;;;;5072816;28;20445;-81
2023/04/09 08:41:31;;;;;;;2.63;1.40;;;12.50;99.90;;;;;;5072900;28;20446;-78
2023/04/09 08:43:59;;;;;;;3.13;1.30;;;12.30;99.90;;;;;;5073241;28;20941;-78
2023/04/09 08:46:26;;;;;;;1.20;0.80;;;12.20;99.90;;;;;;5072480;28;20485;-77
2023/04/09 08:48:53;;;;;;;0.50;0.50;;;12.30;99.90;;;;;;5072892;28;20492;-79
2023/04/09 08:51:21;;;;;;;1.13;0.83;;;12.60;95.20;;;;;;5072698;28;20468;-78
2023/04/09 08:53:52;;;;;;;0.77;0.60;;;13.40;94.00;;;;;;5072810;28;20504;-78
2023/04/09 08:56:22;;;;;;;2.20;0.60;;;14.30;90.40;;;;;;5072855;28;20434;-78
2023/04/09 08:58:49;;;;;;;2.70;1.63;;;14.50;90.00;;;;;;5072997;28;20434;-77
2023/04/09 09:01:23;;;;;;;2.10;1.07;;;14.70;90.10;;;;;;5072808;28;20838;-77
2023/04/09 09:03:59;;;;;;;1.43;1.17;;;14.20;90.20;;;;;;5076358;28;20438;-78
2023/04/09 09:06:28;;;;;;;1.07;0.97;;;13.50;91.40;;;;;;5076256;28;20440;-78
2023/04/09 09:09:08;;;;;;;5.03;1.47;;;13.70;92.20;;;;;;5076088;28;20531;-78
2023/04/09 09:11:35;;;;;;;1.47;1.00;;;13.80;92.20;;;;;;5076388;28;20499;-77
2023/04/09 09:14:03;;;;;;;2.77;1.27;;;13.40;89.60;;;;;;5076128;28;20445;-77
2023/04/09 09:16:31;;;;;;;1.40;1.10;;;12.80;92.20;;;;;;5076081;28;20480;-78
2023/04/09 09:18:59;;;;;;;2.10;1.57;;;12.50;93.70;;;;;;5076338;28;20441;-79
2023/04/09 09:21:27;;;;;;;3.03;1.70;;;12.40;93.90;;;;;;5075927;28;20449;-78
2023/04/09 09:23:55;;;;;;;2.60;1.10;;;12.40;92.80;;;;;;5075649;28;20949;-78
2023/04/09 09:26:25;;;;;;;2.43;1.20;;;12.30;91.60;;;;;;5075906;28;20458;-79
2023/04/09 09:28:52;;;;;;;3.63;1.60;;;12.30;92.10;;;;;;5075819;28;20520;-78
2023/04/09 09:31:20;;;;;;;1.90;1.20;;;12.40;92.40;;;;;;5075735;28;20469;-79
2023/04/09 09:33:49;;;;;;;3.70;1.50;;;12.50;94.80;;;;;;5075394;28;20800;-78
2023/04/09 09:36:30;;;;;;;3.77;1.47;;;13.50;93.90;;;;;;5075767;28;20441;-78
2023/04/09 09:39:00;;;;;;;6.40;1.63;;;13.80;93.10;;;;;;5075653;28;20437;-78
2023/04/09 09:41:29;;;;;;;2.70;1.20;;;13.60;94.20;;;;;;5075600;28;20433;-78
2023/04/09 09:43:56;;;;;;;2.20;1.50;;;13.50;93.00;;;;;;5075733;28;20476;-78
2023/04/09 09:46:26;;;;;;;1.67;1.03;;;13.10;93.50;;;;;;5075314;28;20482;-78
2023/04/09 09:48:56;;;;;;;6.03;1.77;;;12.90;94.90;;;;;;5075152;28;20567;-78
2023/04/09 09:51:27;;;;;;;4.23;1.33;;;12.90;95.30;;;;;;5076061;28;20485;-81
2023/04/09 09:53:56;;;;;;;1.90;0.93;;;13.00;93.70;;;;;;5075498;28;20430;-82
2023/04/09 09:56:31;;;;;;;1.33;1.23;;;12.90;92.80;;;;;;5075377;28;20441;-81
2023/04/09 09:59:06;;;;;;;2.07;1.23;;;12.60;91.60;;;;;;5075397;28;20430;-82
2023/04/09 10:01:34;;;;;;;1.43;1.33;;;12.50;92.30;;;;;;5075285;28;20452;-82
2023/04/09 10:04:02;;;;;;;0.70;0.70;;;12.60;93.70;;;;;;5075207;28;20799;-81
2023/04/09 10:06:30;;;;;;;3.00;1.30;;;12.50;92.20;;;;;;5074830;28;20491;-81
2023/04/09 10:09:00;;;;;;;2.93;1.67;;;12.50;92.20;;;;;;5074958;28;20492;-81
2023/04/09 10:11:27;;;;;;;3.17;1.20;;;12.20;91.50;;;;;;5074763;28;20963;-81
2023/04/09 10:13:57;;;;;;;2.97;1.63;;;12.00;91.80;;;;;;5074521;28;20956;-81
2023/04/09 10:16:25;;;;;;;2.30;1.33;;;11.90;92.10;;;;;;5074976;28;20434;-81
2023/04/09 10:18:53;;;;;;;1.13;1.03;;;11.70;93.00;;;;;;5074882;28;20450;-81
2023/04/09 10:21:28;;;;;;;1.57;1.03;;;11.60;93.50;;;;;;5074787;28;20469;-81
2023/04/09 10:23:56;;;;;;;2.80;1.50;;;11.60;94.00;;;;;;5074821;28;20429;-81
2023/04/09 10:26:26;;;;;;;1.70;1.13;;;11.60;93.90;;;;;;5075187;28;20507;-81
2023/04/09 10:29:07;;;;;;;1.63;1.00;;;11.60;93.70;;;;;;5074874;28;20465;-81
2023/04/09 10:31:52;;;;;;;1.63;0.70;;;11.80;93.60;;;;;;5074711;28;20440;-82
2023/04/09 10:34:21;;;;;;;3.23;1.20;;;11.90;93.00;;;;;;5074630;28;20436;-83
2023/04/09 10:36:52;;;;;;;1.30;1.03;;;12.40;93.20;;;;;;5074242;28;20959;-81
2023/04/09 10:39:19;;;;;;;2.53;1.20;;;13.00;92.60;;;;;;5074472;28;20462;-81
2023/04/09 10:41:48;;;;;;;2.30;1.37;;;13.20;91.60;;;;;;5074172;28;20457;-81
2023/04/09 10:44:22;;;;;;;1.90;1.57;;;13.30;93.00;;;;;;5075047;28;20446;-81
2023/04/09 10:46:53;;;;;;;1.27;0.93;;;13.30;90.90;;;;;;5079318;28;20481;-81
2023/04/09 10:49:21;;;;;;;3.70;1.13;;;13.00;91.10;;;;;;5081655;28;20512;-81
2023/04/09 10:51:50;;;;;;;1.03;0.77;;;13.00;91.90;;;;;;5082358;28;20450;-81
2023/04/09 10:54:37;;;;;;;2.60;1.50;;;13.00;91.90;;;;;;5075353;28;20445;-82
2023/04/09 10:57:15;;;;;;;3.37;1.77;;;12.80;93.00;;;;;;5074191;28;20452;-81
2023/04/09 10:59:43;;;;;;;1.90;1.00;;;12.80;92.60;;;;;;5073759;28;20552;-82
2023/04/09 11:02:43;;;;;;;2.47;1.00;;;13.50;91.90;;;;;;5074641;28;20471;-81
2023/04/09 11:05:19;;;;;;;1.07;0.87;;;13.70;90.80;;;;;;5073980;28;20453;-81
2023/04/09 11:07:51;;;;;;;1.70;1.40;;;13.60;90.70;;;;;;5073916;28;20560;-81
2023/04/09 11:10:19;;;;;;;1.33;1.10;;;13.40;90.50;;;;;;5073774;28;20492;-82
2023/04/09 11:12:47;;;;;;;4.17;1.20;;;13.10;90.90;;;;;;5073837;28;20450;-82
2023/04/09 11:15:18;;;;;;;4.20;1.20;;;12.70;90.50;;;;;;5073845;28;20445;-81
2023/04/09 11:17:46;;;;;;;2.40;1.03;;;12.40;90.10;;;;;;5074128;28;20851;-81
2023/04/09 11:20:14;;;;;;;1.47;0.83;;;12.20;90.90;;;;;;5073767;28;20519;-81
2023/04/09 11:22:40;;;;;;;3.43;1.30;;;12.10;90.90;;;;;;5073774;28;20442;-81
2023/04/09 11:25:08;;;;;;;1.63;1.00;;;12.10;91.70;;;;;;5072817;28;20445;-82
2023/04/09 11:27:37;;;;;;;1.10;0.97;;;12.30;91.50;;;;;;5073554;28;20555;-81
2023/04/09 11:30:05;;;;;;;0.77;0.60;;;12.30;87.00;;;;;;5073570;28;20980;-82
2023/04/09 11:32:33;;;;;;;1.97;1.40;;;12.40;86.90;;;;;;5073505;28;20548;-82
2023/04/09 11:35:01;;;;;;;0.93;0.77;;;12.40;87.60;;;;;;5073790;28;20450;-81
2023/04/09 11:37:28;;;;;;;1.47;0.80;;;12.60;86.10;;;;;;5073540;28;20495;-82
2023/04/09 11:39:56;;;;;;;3.27;1.20;;;12.60;89.10;;;;;;5073048;28;20942;-82
2023/04/09 11:42:24;;;;;;;1.53;1.07;;;12.80;86.20;;;;;;5073195;28;20959;-82
2023/04/09 11:44:52;;;;;;;1.63;1.17;;;12.70;85.00;;;;;;5073106;28;20972;-81
2023/04/09 11:47:20;;;;;;;2.93;1.47;;;12.50;85.80;;;;;;5073094;28;21026;-81
2023/04/09 11:49:47;;;;;;;2.57;1.60;;;12.40;84.60;;;;;;5073741;28;20488;-82
2023/04/09 11:52:15;;;;;;;2.53;1.07;;;12.50;86.70;;;;;;5073365;28;20830;-82
2023/04/09 11:54:42;;;;;;;1.20;0.80;;;12.80;85.60;;;;;;5073723;28;20434;-82
2023/04/09 11:57:09;;;;;;;4.50;0.80;;;13.10;85.60;;;;;;5073310;28;20477;-82
2023/04/09 11:59:39;;;;;;;1.23;1.03;;;13.20;85.50;;;;;;5073222;28;20466;-81
2023/04/09 12:02:06;;;;;;;1.53;1.07;;;13.20;85.70;;;;;;5072990;28;20909;-81
2023/04/09 12:04:33;;;;;;;2.20;1.13;;;13.20;83.40;;;;;;5073259;28;20450;-81
2023/04/09 12:07:00;;;;;;;0.83;0.83;;;13.10;83.20;;;;;;5072908;28;20843;-81
2023/04/09 12:09:28;;;;;;;1.33;0.97;;;12.80;85.00;;;;;;5072977;28;20489;-81
2023/04/09 12:11:56;;;;;;;1.40;0.83;;;12.60;86.50;;;;;;5073158;28;20444;-81
2023/04/09 12:14:23;;;;;;;2.10;1.13;;;12.40;86.10;;;;;;5073214;28;20442;-82
2023/04/09 12:16:51;;;;;;;1.20;1.03;;;12.20;87.10;;;;;;5072912;28;20793;-82
2023/04/09 12:19:19;;;;;;;3.53;1.20;;;12.20;88.00;;;;;;5072968;28;20438;-81
2023/04/09 12:21:47;;;;;;;1.03;0.93;;;12.40;85.10;;;;;;5073073;28;20855;-82
2023/04/09 12:24:15;;;;;;;0.90;0.90;;;12.40;86.00;;;;;;5072977;28;20455;-82
2023/04/09 12:26:44;;;;;;;2.60;1.67;;;12.10;87.70;;;;;;5073871;28;20499;-81
2023/04/09 12:29:11;;;;;;;1.57;1.17;;;12.10;87.60;;;;;;5072582;28;20992;-82
2023/04/09 12:31:38;;;;;;;1.60;0.93;;;12.10;87.40;;;;;;5072980;28;20449;-82
2023/04/09 12:34:04;;;;;;;4.40;1.80;;;12.10;87.90;;;;;;5072642;28;20460;-82
2023/04/09 12:36:31;;;;;;;1.07;0.80;;;12.00;88.80;;;;;;5073238;28;20453;-82
2023/04/09 12:38:58;;;;;;;4.50;2.30;;;12.00;88.50;;;;;;5076747;28;20445;-81
2023/04/09 12:41:25;;;;;;;4.00;1.13;;;12.00;89.10;;;;;;5076916;28;20510;-82
2023/04/09 12:43:53;;;;;;;1.33;1.00;;;12.00;90.20;;;;;;5076668;28;20453;-81
2023/04/09 12:46:20;;;;;;;1.57;1.20;;;12.00;88.60;;;;;;5076359;28;20477;-82
2023/04/09 12:48:47;;;;;;;4.47;1.67;;;12.10;90.30;;;;;;5076354;28;20534;-81
2023/04/09 12:51:14;;;;;;;1.17;0.80;;;12.10;90.10;;;;;;5076445;28;20872;-81
2023/04/09 12:53:41;;;;;;;1.90;1.10;;;12.20;90.20;;;;;;5076166;28;20945;-81
2023/04/09 12:56:08;;;;;;;2.23;1.63;;;12.30;90.20;;;;;;5076123;28;20802;-81
2023/04/09 12:58:36;;;;;;;1.93;1.17;;;12.60;89.50;;;;;;5076105;28;20445;-81